Time;durP1;ratioP1;P1;durP2;ratioP2;P2;SDS_P1;SDS_P2;PMS_P1;PMS_P2;Temp;Humidity;BMP_temperature;BMP_pressure;BME280_temperature;BME280_humidity;BME280_pressure;Samples;Min_cycle;Max_cycle;Signal;HPM_P1;HPM_P2
2022/10/10 00:00:42;;;;;;;60.40;41.25;;;10.50;99.90;;;;;;5075655;28;20097;-57
2022/10/10 00:03:08;;;;;;;66.80;43.33;;;10.50;99.90;;;;;;5075424;28;20474;-57
2022/10/10 00:05:36;;;;;;;62.65;41.35;;;10.50;99.90;;;;;;5075691;28;20036;-57
2022/10/10 00:08:02;;;;;;;72.63;42.97;;;10.50;99.90;;;;;;5075476;28;20037;-57
2022/10/10 00:10:28;;;;;;;63.30;42.78;;;10.40;99.90;;;;;;5075578;28;20486;-57
2022/10/10 00:12:54;;;;;;;62.35;40.60;;;10.30;99.90;;;;;;5075235;28;20052;-57
2022/10/10 00:15:20;;;;;;;60.42;41.33;;;10.30;99.90;;;;;;5075368;28;20036;-57
2022/10/10 00:17:46;;;;;;;69.18;42.95;;;10.40;99.90;;;;;;5075250;28;20025;-57
2022/10/10 00:20:14;;;;;;;60.45;41.88;;;10.40;99.90;;;;;;5075309;28;20029;-57
2022/10/10 00:22:40;;;;;;;73.28;44.35;;;10.40;99.90;;;;;;5075189;28;20081;-57
2022/10/10 00:25:07;;;;;;;95.55;51.40;;;10.40;99.90;;;;;;5084509;28;20032;-57
2022/10/10 00:27:34;;;;;;;79.75;47.17;;;10.40;99.90;;;;;;5095388;28;20115;-57
2022/10/10 00:30:00;;;;;;;102.35;55.85;;;10.50;99.90;;;;;;5095267;28;20024;-57
2022/10/10 00:32:26;;;;;;;167.23;72.13;;;10.40;99.90;;;;;;5095190;28;20066;-57
2022/10/10 00:34:52;;;;;;;136.68;60.15;;;10.40;99.90;;;;;;5095745;28;20757;-57
2022/10/10 00:37:18;;;;;;;103.82;53.60;;;10.40;99.90;;;;;;5095229;28;20035;-57
2022/10/10 00:39:44;;;;;;;69.78;45.42;;;10.50;99.90;;;;;;5095154;28;20024;-57
2022/10/10 00:42:12;;;;;;;70.22;45.47;;;10.40;99.90;;;;;;5095160;28;20027;-57
2022/10/10 00:44:43;;;;;;;59.95;40.55;;;10.40;99.90;;;;;;5095175;28;20042;-57
2022/10/10 00:47:09;;;;;;;57.58;41.97;;;10.30;99.90;;;;;;5076513;28;20024;-57
2022/10/10 00:49:38;;;;;;;61.92;40.25;;;10.30;99.90;;;;;;5074776;28;20104;-57
2022/10/10 00:52:06;;;;;;;53.90;39.17;;;10.40;99.90;;;;;;5074976;28;20032;-57
2022/10/10 00:54:32;;;;;;;57.03;37.42;;;10.50;99.90;;;;;;5074683;28;20036;-57
2022/10/10 00:57:11;;;;;;;55.90;37.97;;;10.50;99.90;;;;;;5074646;28;20561;-57
2022/10/10 00:59:39;;;;;;;58.72;39.90;;;10.40;99.90;;;;;;5074641;28;20020;-57
2022/10/10 01:02:06;;;;;;;63.15;40.38;;;10.40;99.90;;;;;;5074674;28;20032;-57
2022/10/10 01:04:37;;;;;;;78.47;46.28;;;10.30;99.90;;;;;;5074533;28;20039;-57
2022/10/10 01:07:13;;;;;;;;;;;10.30;99.90;;;;;;5075052;28;20028;-57
2022/10/10 01:09:42;;;;;;;87.43;47.95;;;10.30;99.90;;;;;;5074648;28;19999;-57
2022/10/10 01:12:10;;;;;;;93.38;48.70;;;10.30;99.90;;;;;;5074291;28;20036;-57
2022/10/10 01:15:14;;;;;;;96.80;47.92;;;10.30;99.90;;;;;;5074336;28;20099;-57
2022/10/10 01:17:58;;;;;;;111.88;53.72;;;10.50;99.90;;;;;;5074455;28;20028;-57
2022/10/10 01:20:40;;;;;;;149.30;62.10;;;10.60;99.90;;;;;;5074301;28;20025;-57
2022/10/10 01:23:18;;;;;;;152.40;66.32;;;10.60;99.90;;;;;;5074466;28;20108;-57
2022/10/10 01:26:11;;;;;;;144.27;63.33;;;10.50;99.90;;;;;;5088783;28;20379;-57
2022/10/10 01:28:42;;;;;;;101.13;51.55;;;10.50;99.90;;;;;;5094405;28;20531;-57
2022/10/10 01:31:11;;;;;;;68.82;41.40;;;10.50;99.90;;;;;;5094627;28;20654;-57
2022/10/10 01:33:53;;;;;;;67.22;41.92;;;10.50;99.90;;;;;;5094351;28;20086;-57
2022/10/10 01:37:00;;;;;;;62.00;39.67;;;10.40;99.90;;;;;;5094365;28;20363;-57
2022/10/10 01:39:33;;;;;;;66.35;41.63;;;10.40;99.90;;;;;;5094466;28;20389;-57
2022/10/10 01:42:06;;;;;;;58.30;39.22;;;10.20;99.90;;;;;;5094341;28;20535;-57
2022/10/10 01:44:32;;;;;;;68.90;43.72;;;10.20;99.90;;;;;;5094548;28;20119;-57
2022/10/10 01:46:58;;;;;;;57.65;37.42;;;10.20;99.90;;;;;;5077226;28;20052;-57
2022/10/10 01:49:30;;;;;;;54.33;36.40;;;10.20;99.90;;;;;;5074093;28;20072;-57
2022/10/10 01:52:11;;;;;;;65.43;36.25;;;10.10;99.90;;;;;;5076602;28;20025;-57
2022/10/10 01:54:55;;;;;;;59.22;36.80;;;10.10;99.90;;;;;;5078002;28;20028;-57
2022/10/10 01:57:31;;;;;;;51.83;35.13;;;10.00;99.90;;;;;;5077968;28;20546;-57
2022/10/10 02:00:07;;;;;;;70.50;42.80;;;10.20;99.90;;;;;;5078255;28;20093;-57
2022/10/10 02:02:50;;;;;;;67.38;41.90;;;10.10;99.90;;;;;;5077975;28;20039;-57
2022/10/10 02:05:43;;;;;;;59.55;38.72;;;10.10;99.90;;;;;;5077875;28;20028;-57
2022/10/10 02:08:18;;;;;;;74.07;42.47;;;10.20;99.90;;;;;;5077958;28;20560;-57
2022/10/10 02:11:00;;;;;;;95.05;46.70;;;10.30;99.90;;;;;;5077776;28;20036;-57
2022/10/10 02:13:40;;;;;;;81.30;46.30;;;10.30;99.90;;;;;;5077810;28;20055;-57
2022/10/10 02:16:12;;;;;;;75.78;44.15;;;10.30;99.90;;;;;;5077580;28;20052;-57
2022/10/10 02:18:39;;;;;;;71.70;42.40;;;10.30;99.90;;;;;;5077634;28;20071;-57
2022/10/10 02:21:08;;;;;;;104.70;54.72;;;10.30;99.90;;;;;;5077484;28;20513;-57
2022/10/10 02:23:34;;;;;;;66.95;39.38;;;10.20;99.90;;;;;;5077579;28;20104;-57
2022/10/10 02:26:02;;;;;;;58.70;39.47;;;10.20;99.90;;;;;;5094538;28;20043;-57
2022/10/10 02:28:43;;;;;;;63.20;38.97;;;10.20;99.90;;;;;;5097873;28;20028;-57
2022/10/10 02:31:18;;;;;;;59.55;39.15;;;10.20;99.90;;;;;;5097797;28;20373;-57
2022/10/10 02:33:55;;;;;;;54.50;36.42;;;10.20;99.90;;;;;;5097551;28;20431;-57
2022/10/10 02:36:23;;;;;;;55.40;35.50;;;10.10;99.90;;;;;;5097693;28;20054;-57
2022/10/10 02:38:51;;;;;;;63.88;40.28;;;10.10;99.90;;;;;;5097384;28;20031;-57
2022/10/10 02:41:18;;;;;;;74.45;43.97;;;10.10;99.90;;;;;;5097385;28;20091;-57
2022/10/10 02:43:45;;;;;;;63.78;40.92;;;10.20;99.90;;;;;;5097480;28;20103;-57
2022/10/10 02:46:12;;;;;;;66.03;41.83;;;10.30;99.90;;;;;;5087082;28;20029;-57
2022/10/10 02:48:39;;;;;;;68.60;40.22;;;10.20;99.90;;;;;;5077292;28;20070;-57
2022/10/10 02:51:05;;;;;;;75.53;44.50;;;10.00;99.90;;;;;;5077155;28;20021;-57
2022/10/10 02:53:32;;;;;;;77.97;44.83;;;10.10;99.90;;;;;;5076950;28;20024;-57
2022/10/10 02:55:58;;;;;;;80.50;47.42;;;10.10;99.90;;;;;;5077188;28;20028;-57
2022/10/10 02:58:24;;;;;;;71.95;43.65;;;10.00;99.90;;;;;;5076814;28;20032;-57
2022/10/10 03:00:50;;;;;;;72.53;43.55;;;9.90;99.90;;;;;;5076991;28;20090;-57
2022/10/10 03:03:16;;;;;;;78.07;44.10;;;10.00;99.90;;;;;;5075620;28;20031;-57
2022/10/10 03:05:42;;;;;;;77.60;42.55;;;10.00;99.90;;;;;;5076739;28;20033;-57
2022/10/10 03:08:08;;;;;;;73.15;42.40;;;10.00;99.90;;;;;;5076611;28;20043;-57
2022/10/10 03:10:34;;;;;;;73.93;42.78;;;10.10;99.90;;;;;;5076858;28;20024;-57
2022/10/10 03:13:00;;;;;;;60.58;36.90;;;10.10;99.90;;;;;;5076421;28;20049;-57
2022/10/10 03:15:26;;;;;;;62.15;36.92;;;10.10;99.90;;;;;;5076540;28;20060;-57
2022/10/10 03:17:52;;;;;;;60.05;37.72;;;10.10;99.90;;;;;;5076518;28;20476;-57
2022/10/10 03:20:17;;;;;;;58.83;36.92;;;10.10;99.90;;;;;;5076583;28;20482;-57
2022/10/10 03:22:43;;;;;;;62.67;38.65;;;10.10;99.90;;;;;;5076415;28;20032;-57
2022/10/10 03:25:09;;;;;;;61.78;38.42;;;10.20;99.90;;;;;;5086263;28;20024;-57
2022/10/10 03:27:35;;;;;;;58.20;37.40;;;10.20;99.90;;;;;;5096477;28;20036;-57
2022/10/10 03:30:02;;;;;;;60.08;39.65;;;10.30;99.90;;;;;;5096523;28;20397;-57
2022/10/10 03:32:28;;;;;;;56.47;38.58;;;10.30;99.90;;;;;;5096694;28;20024;-57
2022/10/10 03:34:54;;;;;;;61.03;38.35;;;10.30;99.90;;;;;;5096557;28;20092;-57
2022/10/10 03:37:20;;;;;;;73.25;39.90;;;10.20;99.90;;;;;;5096313;28;20036;-57
2022/10/10 03:39:46;;;;;;;72.95;42.60;;;10.20;99.90;;;;;;5096527;28;20032;-57
2022/10/10 03:42:12;;;;;;;78.63;46.85;;;10.30;99.90;;;;;;5096168;28;20028;-57
2022/10/10 03:44:37;;;;;;;71.10;43.90;;;10.30;99.90;;;;;;5096325;28;20438;-57
2022/10/10 03:47:03;;;;;;;73.13;41.60;;;10.30;99.90;;;;;;5078407;28;20032;-58
2022/10/10 03:49:29;;;;;;;65.22;41.35;;;10.40;99.90;;;;;;5075941;28;20036;-57
2022/10/10 03:51:56;;;;;;;85.85;46.83;;;10.40;99.90;;;;;;5075938;28;20096;-57
2022/10/10 03:54:22;;;;;;;75.18;47.17;;;10.40;99.90;;;;;;5075724;28;20032;-57
2022/10/10 03:56:48;;;;;;;83.05;50.00;;;10.30;99.90;;;;;;5074409;28;20089;-57
2022/10/10 03:59:14;;;;;;;83.60;49.03;;;10.40;99.90;;;;;;5075762;28;20082;-57
2022/10/10 04:01:40;;;;;;;96.20;55.38;;;10.40;99.90;;;;;;5075909;28;20064;-57
2022/10/10 04:04:06;;;;;;;100.07;55.53;;;10.60;99.90;;;;;;5075482;28;20029;-57
2022/10/10 04:06:32;;;;;;;105.80;52.40;;;10.60;99.90;;;;;;5075522;28;20398;-57
2022/10/10 04:08:58;;;;;;;97.55;50.20;;;10.60;99.90;;;;;;5075633;28;20067;-57
2022/10/10 04:11:24;;;;;;;101.70;49.38;;;10.60;99.90;;;;;;5075414;28;20036;-57
2022/10/10 04:13:49;;;;;;;90.68;46.03;;;10.60;99.90;;;;;;5074898;28;20043;-57
2022/10/10 04:16:15;;;;;;;92.32;48.97;;;10.70;99.90;;;;;;5075611;28;20047;-57
2022/10/10 04:18:41;;;;;;;100.50;49.03;;;10.70;99.90;;;;;;5075270;28;20021;-57
2022/10/10 04:21:08;;;;;;;82.28;45.67;;;10.70;99.90;;;;;;5075246;28;20025;-57
2022/10/10 04:23:34;;;;;;;82.75;47.58;;;10.80;99.90;;;;;;5074040;28;20032;-57
2022/10/10 04:26:00;;;;;;;78.30;45.83;;;10.70;99.90;;;;;;5092152;28;20466;-57
2022/10/10 04:28:26;;;;;;;81.43;46.30;;;10.70;99.90;;;;;;5095504;28;20024;-58
2022/10/10 04:30:55;;;;;;;74.25;44.33;;;10.70;99.90;;;;;;5095241;28;20030;-57
2022/10/10 04:33:21;;;;;;;80.95;45.20;;;10.80;99.90;;;;;;5095309;28;20123;-57
2022/10/10 04:35:49;;;;;;;87.55;47.50;;;10.90;99.90;;;;;;5095148;28;20031;-58
2022/10/10 04:38:16;;;;;;;84.63;45.75;;;10.80;99.90;;;;;;5095283;28;20027;-58
2022/10/10 04:40:42;;;;;;;97.95;48.63;;;10.80;99.90;;;;;;5095067;28;20064;-57
2022/10/10 04:43:08;;;;;;;78.18;48.47;;;10.90;99.90;;;;;;5095160;28;20061;-58
2022/10/10 04:45:34;;;;;;;94.05;49.35;;;10.90;99.90;;;;;;5089795;28;20032;-58
2022/10/10 04:48:00;;;;;;;85.75;47.88;;;10.90;99.90;;;;;;5074731;28;20055;-57
2022/10/10 04:50:26;;;;;;;83.35;46.95;;;10.90;99.90;;;;;;5074861;28;20036;-57
2022/10/10 04:52:52;;;;;;;88.32;51.20;;;11.00;99.90;;;;;;5074712;28;20021;-57
2022/10/10 04:55:18;;;;;;;92.38;49.85;;;11.00;99.90;;;;;;5074596;28;20040;-57
2022/10/10 04:57:44;;;;;;;102.28;53.42;;;11.00;99.90;;;;;;5074894;28;20040;-57
2022/10/10 05:00:10;;;;;;;122.28;60.83;;;10.90;99.90;;;;;;5074673;28;20032;-57
2022/10/10 05:02:36;;;;;;;113.45;55.45;;;10.80;99.90;;;;;;5074525;28;20039;-57
2022/10/10 05:05:02;;;;;;;99.13;52.67;;;10.80;99.90;;;;;;5074399;28;20115;-58
2022/10/10 05:07:28;;;;;;;92.93;49.53;;;10.80;99.90;;;;;;5074591;28;20094;-57
2022/10/10 05:09:54;;;;;;;95.72;48.38;;;10.70;99.90;;;;;;5074312;28;20033;-57
2022/10/10 05:12:20;;;;;;;97.75;49.55;;;10.70;99.90;;;;;;5074129;28;20105;-57
2022/10/10 05:14:46;;;;;;;91.35;47.30;;;10.70;99.90;;;;;;5074254;28;20386;-57
2022/10/10 05:17:12;;;;;;;97.57;49.28;;;10.80;99.90;;;;;;5070630;28;20445;-57
2022/10/10 05:19:37;;;;;;;93.32;48.72;;;11.00;99.90;;;;;;5072702;28;20444;-57
2022/10/10 05:22:03;;;;;;;104.03;51.75;;;11.10;99.90;;;;;;5074612;28;20032;-57
2022/10/10 05:24:29;;;;;;;90.43;50.28;;;11.10;99.90;;;;;;5078222;28;20028;-57
2022/10/10 05:26:55;;;;;;;92.53;49.22;;;11.00;99.90;;;;;;5093794;28;20169;-57
2022/10/10 05:29:21;;;;;;;90.55;48.58;;;10.90;99.90;;;;;;5094177;28;20028;-57
2022/10/10 05:31:47;;;;;;;94.03;48.47;;;10.80;99.90;;;;;;5094438;28;20032;-57
2022/10/10 05:34:14;;;;;;;96.32;49.65;;;10.80;99.90;;;;;;5094483;28;20024;-57
2022/10/10 05:36:40;;;;;;;98.93;50.08;;;10.80;99.90;;;;;;5073279;28;20023;-58
2022/10/10 05:39:08;;;;;;;106.82;54.70;;;10.80;99.90;;;;;;5067057;28;20052;-58
2022/10/10 05:41:34;;;;;;;117.75;55.70;;;10.90;99.90;;;;;;5071693;28;20017;-57
2022/10/10 05:44:00;;;;;;;109.72;54.83;;;10.90;99.90;;;;;;5060078;28;20055;-57
2022/10/10 05:46:26;;;;;;;105.43;53.35;;;10.80;99.90;;;;;;5054611;28;20032;-57
2022/10/10 05:48:53;;;;;;;114.28;54.58;;;10.80;99.90;;;;;;5054181;28;20033;-57
2022/10/10 05:51:20;;;;;;;121.53;59.20;;;10.90;99.90;;;;;;5053889;28;20033;-57
2022/10/10 05:53:46;;;;;;;120.65;58.75;;;11.10;99.90;;;;;;5053977;28;20025;-57
2022/10/10 05:56:15;;;;;;;131.02;60.42;;;11.10;99.90;;;;;;5053782;28;20033;-58
2022/10/10 05:58:43;;;;;;;123.20;58.35;;;11.20;99.90;;;;;;5054032;28;20455;-58
2022/10/10 06:01:09;;;;;;;109.07;53.22;;;11.30;99.90;;;;;;5057694;28;20012;-57
2022/10/10 06:03:35;;;;;;;108.47;55.50;;;11.40;99.90;;;;;;5073721;28;20023;-57
2022/10/10 06:06:02;;;;;;;108.38;53.38;;;11.40;99.90;;;;;;5073391;28;20094;-58
2022/10/10 06:08:30;;;;;;;107.10;54.55;;;11.50;99.90;;;;;;5073916;28;20056;-57
2022/10/10 06:11:01;;;;;;;115.47;56.38;;;11.60;99.90;;;;;;5073698;28;20032;-58
2022/10/10 06:13:27;;;;;;;111.05;56.75;;;11.40;99.90;;;;;;5073565;28;20048;-57
2022/10/10 06:15:53;;;;;;;111.18;58.28;;;11.50;99.90;;;;;;5073099;28;20032;-57
2022/10/10 06:18:19;;;;;;;116.93;54.47;;;11.50;99.90;;;;;;5073209;28;20040;-57
2022/10/10 06:20:48;;;;;;;115.40;56.92;;;11.70;99.90;;;;;;5073497;28;20024;-58
2022/10/10 06:23:15;;;;;;;104.10;50.38;;;11.70;99.90;;;;;;5071611;28;20273;-58
2022/10/10 06:25:41;;;;;;;108.65;54.78;;;11.80;99.90;;;;;;5087369;28;20036;-58
2022/10/10 06:28:07;;;;;;;93.85;51.25;;;11.80;99.90;;;;;;5074456;28;20032;-58
2022/10/10 06:30:33;;;;;;;112.90;53.95;;;11.90;99.90;;;;;;5073021;28;20060;-58
2022/10/10 06:32:59;;;;;;;98.50;51.83;;;12.00;99.90;;;;;;5072362;28;20052;-58
2022/10/10 06:35:25;;;;;;;123.40;55.78;;;12.20;99.90;;;;;;5071931;28;20118;-58
2022/10/10 06:37:51;;;;;;;109.32;53.45;;;12.20;99.90;;;;;;5075601;28;20028;-58
2022/10/10 06:40:17;;;;;;;113.63;53.83;;;12.10;99.90;;;;;;5077255;28;20028;-57
2022/10/10 06:42:43;;;;;;;116.00;54.90;;;12.10;99.90;;;;;;5077968;28;20035;-57
2022/10/10 06:45:09;;;;;;;110.80;54.85;;;12.20;99.90;;;;;;5077840;28;20478;-57
2022/10/10 06:47:35;;;;;;;98.47;51.92;;;12.10;99.90;;;;;;5077634;28;20029;-57
2022/10/10 06:50:04;;;;;;;104.20;54.15;;;12.10;99.90;;;;;;5076783;28;20028;-58
2022/10/10 06:52:30;;;;;;;105.10;51.70;;;12.10;99.90;;;;;;5077052;28;20059;-57
2022/10/10 06:54:56;;;;;;;88.55;49.55;;;12.10;99.90;;;;;;5076744;28;20058;-58
2022/10/10 06:57:22;;;;;;;86.88;49.42;;;12.00;99.90;;;;;;5076539;28;20032;-58
2022/10/10 06:59:48;;;;;;;90.72;46.58;;;12.10;99.90;;;;;;5076744;28;20079;-57
2022/10/10 07:02:14;;;;;;;92.57;47.17;;;12.20;99.90;;;;;;5076138;28;20020;-58
2022/10/10 07:04:40;;;;;;;112.47;53.92;;;12.30;99.90;;;;;;5076568;28;20111;-57
2022/10/10 07:07:06;;;;;;;110.80;53.42;;;12.30;99.90;;;;;;5076821;28;20173;-58
2022/10/10 07:09:31;;;;;;;92.53;48.38;;;12.10;99.90;;;;;;5076704;28;20042;-58
2022/10/10 07:11:57;;;;;;;108.63;52.40;;;12.10;99.90;;;;;;5076198;28;20466;-58
2022/10/10 07:14:23;;;;;;;101.93;51.67;;;12.10;99.90;;;;;;5075943;28;20035;-58
2022/10/10 07:16:49;;;;;;;104.00;52.80;;;12.20;99.90;;;;;;5075254;28;20040;-57
2022/10/10 07:19:15;;;;;;;86.07;49.20;;;12.30;99.90;;;;;;5076661;28;20032;-58
2022/10/10 07:21:41;;;;;;;91.15;49.58;;;12.40;99.90;;;;;;5075334;28;20111;-57
2022/10/10 07:24:07;;;;;;;83.38;42.60;;;12.40;99.90;;;;;;5076844;28;20074;-58
2022/10/10 07:26:37;;;;;;;94.57;49.05;;;12.50;99.90;;;;;;5074656;28;20028;-58
2022/10/10 07:29:04;;;;;;;120.40;56.58;;;12.50;99.90;;;;;;5075230;28;20234;-57
2022/10/10 07:31:31;;;;;;;111.22;54.78;;;12.60;99.90;;;;;;5075546;28;20025;-57
2022/10/10 07:33:57;;;;;;;175.23;94.10;;;12.70;99.90;;;;;;5074595;28;20036;-58
2022/10/10 07:36:23;;;;;;;201.57;112.43;;;12.80;99.90;;;;;;5075654;28;20024;-58
2022/10/10 07:38:51;;;;;;;173.82;94.55;;;12.90;99.90;;;;;;5075267;28;20033;-58
2022/10/10 07:41:18;;;;;;;140.75;71.80;;;13.00;99.90;;;;;;5075218;28;20025;-57
2022/10/10 07:43:44;;;;;;;128.30;71.78;;;13.20;99.90;;;;;;5074027;28;20027;-58
2022/10/10 07:46:16;;;;;;;126.28;61.42;;;13.30;99.90;;;;;;5075767;28;20378;-58
2022/10/10 07:48:42;;;;;;;126.22;59.47;;;13.40;99.90;;;;;;5075207;28;20036;-58
2022/10/10 07:51:09;;;;;;;90.85;51.85;;;13.60;99.90;;;;;;5075845;28;20048;-58
2022/10/10 07:53:35;;;;;;;86.35;50.53;;;13.90;99.90;;;;;;5072790;28;20184;-58
2022/10/10 07:56:05;;;;;;;103.57;53.55;;;14.10;99.90;;;;;;5075504;28;20555;-58
2022/10/10 07:58:33;;;;;;;87.30;50.47;;;14.20;99.90;;;;;;5075089;28;20103;-58
2022/10/10 08:01:03;;;;;;;94.75;50.58;;;14.20;99.90;;;;;;5074770;28;20029;-58
2022/10/10 08:03:29;;;;;;;79.13;46.80;;;14.30;99.90;;;;;;5075385;28;20028;-58
2022/10/10 08:05:55;;;;;;;81.80;45.70;;;14.50;99.90;;;;;;5075467;28;20024;-58
2022/10/10 08:08:21;;;;;;;73.82;44.67;;;14.60;99.90;;;;;;5073043;28;20386;-58
2022/10/10 08:10:46;;;;;;;80.22;50.10;;;14.60;99.90;;;;;;5073501;28;20098;-58
2022/10/10 08:13:12;;;;;;;71.20;45.78;;;14.50;99.90;;;;;;5073426;28;20056;-58
2022/10/10 08:15:39;;;;;;;81.03;45.28;;;15.00;99.90;;;;;;5074049;28;20032;-57
2022/10/10 08:18:06;;;;;;;76.32;48.47;;;15.50;99.90;;;;;;5074454;28;20035;-57
2022/10/10 08:20:31;;;;;;;73.28;45.80;;;15.70;99.90;;;;;;5075147;28;20112;-58
2022/10/10 08:22:57;;;;;;;76.47;48.67;;;16.00;99.90;;;;;;5075158;28;20435;-57
2022/10/10 08:25:23;;;;;;;72.93;47.80;;;16.10;99.90;;;;;;5075467;28;20028;-57
2022/10/10 08:27:49;;;;;;;77.05;50.28;;;16.40;99.90;;;;;;5072339;28;20382;-57
2022/10/10 08:30:15;;;;;;;71.35;46.67;;;16.80;99.90;;;;;;5074199;28;20024;-57
2022/10/10 08:32:41;;;;;;;68.35;45.47;;;17.60;99.90;;;;;;5074602;28;20031;-57
2022/10/10 08:35:07;;;;;;;65.50;43.88;;;18.10;99.90;;;;;;5073940;28;20025;-57
2022/10/10 08:37:33;;;;;;;65.82;42.72;;;19.30;99.90;;;;;;5074068;28;20491;-57
2022/10/10 08:39:59;;;;;;;65.93;41.60;;;20.40;99.90;;;;;;5073724;28;20075;-57
2022/10/10 08:42:39;;;;;;;61.30;40.65;;;20.40;99.90;;;;;;5074033;28;20470;-57
2022/10/10 08:45:14;;;;;;;59.40;39.35;;;20.70;96.60;;;;;;5074507;28;20028;-57
2022/10/10 08:47:49;;;;;;;74.25;39.63;;;21.10;96.40;;;;;;5073953;28;20028;-57
2022/10/10 08:50:24;;;;;;;68.25;40.65;;;21.10;94.60;;;;;;5055998;28;20441;-58
2022/10/10 08:53:11;;;;;;;62.83;40.88;;;21.50;92.20;;;;;;5063735;28;20029;-58
2022/10/10 08:55:42;;;;;;;67.90;41.63;;;21.50;91.90;;;;;;5067288;28;20081;-57
2022/10/10 08:58:22;;;;;;;73.45;43.30;;;22.30;91.70;;;;;;5074430;28;20032;-58
2022/10/10 09:01:09;;;;;;;73.40;42.50;;;22.90;86.40;;;;;;5073359;28;20103;-58
2022/10/10 09:03:52;;;;;;;68.35;42.13;;;22.90;84.70;;;;;;5073158;28;20557;-58
2022/10/10 09:06:21;;;;;;;73.80;41.38;;;23.10;82.90;;;;;;5073990;28;20034;-58
2022/10/10 09:08:56;;;;;;;77.07;44.60;;;23.40;79.80;;;;;;5073104;28;20074;-58
2022/10/10 09:11:31;;;;;;;69.88;41.80;;;23.30;82.40;;;;;;5070943;28;20025;-58
2022/10/10 09:14:13;;;;;;;66.28;40.17;;;23.90;76.40;;;;;;5072838;28;20052;-58
2022/10/10 09:16:50;;;;;;;60.85;38.40;;;23.90;75.60;;;;;;5071125;28;20028;-58
2022/10/10 09:19:26;;;;;;;68.57;40.97;;;24.30;75.70;;;;;;5072950;28;20111;-58
2022/10/10 09:22:00;;;;;;;69.63;39.72;;;24.00;73.30;;;;;;5073115;28;20162;-58
2022/10/10 09:24:37;;;;;;;65.45;45.28;;;24.00;72.00;;;;;;5073740;28;20029;-58
2022/10/10 09:27:09;;;;;;;54.33;35.20;;;23.30;72.40;;;;;;5071619;28;20579;-58
2022/10/10 09:29:57;;;;;;;62.17;37.45;;;23.70;76.50;;;;;;5074302;28;20385;-58
2022/10/10 09:32:45;;;;;;;53.80;34.78;;;24.80;71.70;;;;;;5073560;28;20037;-58
2022/10/10 09:35:23;;;;;;;49.97;33.25;;;24.80;72.70;;;;;;5073431;28;20422;-58
2022/10/10 09:37:55;;;;;;;52.10;33.83;;;25.40;67.90;;;;;;5073007;28;20025;-58
2022/10/10 09:40:21;;;;;;;50.65;32.75;;;25.60;67.00;;;;;;5072846;28;20154;-58
2022/10/10 09:42:47;;;;;;;50.45;33.42;;;26.10;65.10;;;;;;5073823;28;20051;-58
2022/10/10 09:45:19;;;;;;;54.28;31.95;;;26.30;63.50;;;;;;5073451;28;20024;-58
2022/10/10 09:47:53;;;;;;;47.00;29.77;;;26.40;63.90;;;;;;5073456;28;20382;-59
2022/10/10 09:50:19;;;;;;;56.60;33.58;;;27.00;62.80;;;;;;5073728;28;20036;-58
2022/10/10 09:52:46;;;;;;;51.50;30.65;;;27.20;59.70;;;;;;5073684;28;20039;-58
2022/10/10 09:55:32;;;;;;;46.85;30.95;;;27.80;61.30;;;;;;5074103;28;20025;-58
2022/10/10 09:58:22;;;;;;;42.05;29.45;;;27.30;59.50;;;;;;5073278;28;20371;-58
2022/10/10 10:00:48;;;;;;;42.45;31.42;;;27.50;58.00;;;;;;5065874;28;20340;-57
2022/10/10 10:03:19;;;;;;;43.05;27.95;;;27.00;57.90;;;;;;5073506;28;20031;-57
2022/10/10 10:05:55;;;;;;;47.17;28.15;;;26.70;59.00;;;;;;5074400;28;20028;-57
2022/10/10 10:08:30;;;;;;;32.55;25.80;;;26.90;60.40;;;;;;5074157;28;20068;-57
2022/10/10 10:10:57;;;;;;;35.78;25.58;;;27.10;58.20;;;;;;5072874;28;20093;-57
2022/10/10 10:13:27;;;;;;;40.00;26.40;;;26.60;58.40;;;;;;5076491;28;20115;-57
2022/10/10 10:16:13;;;;;;;34.95;26.55;;;26.80;58.50;;;;;;5069579;28;20047;-57
2022/10/10 10:18:44;;;;;;;37.28;24.15;;;26.90;57.50;;;;;;5073572;28;20035;-57
2022/10/10 10:21:12;;;;;;;30.67;22.25;;;26.50;59.30;;;;;;5076374;28;20020;-57
2022/10/10 10:23:48;;;;;;;36.45;24.20;;;26.90;59.90;;;;;;5077208;28;20466;-57
2022/10/10 10:26:18;;;;;;;37.08;25.40;;;26.50;60.30;;;;;;5071477;28;20486;-57
2022/10/10 10:28:45;;;;;;;40.35;25.92;;;27.30;58.10;;;;;;5076330;28;20033;-57
2022/10/10 10:31:50;;;;;;;36.10;24.55;;;27.50;57.50;;;;;;5072935;28;20036;-57
2022/10/10 10:34:38;;;;;;;52.42;27.90;;;27.90;57.60;;;;;;5034591;28;20450;-57
2022/10/10 10:37:10;;;;;;;31.65;24.20;;;28.00;55.40;;;;;;5053656;28;20033;-57
2022/10/10 10:39:50;;;;;;;28.25;21.40;;;28.40;57.50;;;;;;5057405;28;20029;-57
2022/10/10 10:42:34;;;;;;;35.63;24.10;;;28.40;54.30;;;;;;5056501;28;20449;-57
2022/10/10 10:45:19;;;;;;;30.92;22.00;;;28.70;52.80;;;;;;5074895;28;20030;-57
2022/10/10 10:48:20;;;;;;;29.15;20.60;;;28.40;53.60;;;;;;5076590;28;20028;-57
2022/10/10 10:51:20;;;;;;;38.20;23.65;;;28.60;55.40;;;;;;5075954;28;20086;-57
2022/10/10 10:53:59;;;;;;;38.72;22.17;;;28.50;56.40;;;;;;5073558;28;20064;-57
2022/10/10 10:56:39;;;;;;;28.65;21.40;;;28.70;53.10;;;;;;5065666;28;20033;-57
2022/10/10 10:59:29;;;;;;;31.90;20.27;;;28.60;52.90;;;;;;5076425;28;20024;-57
2022/10/10 11:01:59;;;;;;;29.70;19.10;;;29.10;54.60;;;;;;5071149;28;20028;-57
2022/10/10 11:04:46;;;;;;;24.38;20.23;;;28.90;53.00;;;;;;5065506;28;20028;-57
2022/10/10 11:07:18;;;;;;;31.58;20.80;;;28.70;53.00;;;;;;5056346;28;20478;-58
2022/10/10 11:09:56;;;;;;;32.30;20.02;;;29.00;51.60;;;;;;5071379;28;20085;-58
2022/10/10 11:12:43;;;;;;;30.40;19.20;;;29.20;53.50;;;;;;5075899;28;20044;-57
2022/10/10 11:15:24;;;;;;;30.23;19.75;;;29.30;53.00;;;;;;5056569;28;20077;-57
2022/10/10 11:18:00;;;;;;;28.10;18.40;;;28.90;51.40;;;;;;5056266;28;20056;-57
2022/10/10 11:20:42;;;;;;;26.70;18.13;;;28.90;50.80;;;;;;5068420;28;20361;-57
2022/10/10 11:23:27;;;;;;;30.33;20.50;;;28.90;51.60;;;;;;5065152;28;20048;-57
2022/10/10 11:26:22;;;;;;;30.23;20.20;;;29.20;50.50;;;;;;5076467;28;20091;-58
2022/10/10 11:29:03;;;;;;;31.80;20.30;;;28.50;51.90;;;;;;5055716;28;20048;-58
2022/10/10 11:31:53;;;;;;;38.30;20.85;;;28.80;51.20;;;;;;5061535;28;20035;-58
2022/10/10 11:34:34;;;;;;;35.83;21.67;;;29.10;52.00;;;;;;5073140;28;20068;-58
2022/10/10 11:37:07;;;;;;;31.83;19.30;;;29.10;50.80;;;;;;5068890;28;20021;-58
2022/10/10 11:39:49;;;;;;;33.50;21.73;;;29.30;51.80;;;;;;5064622;28;20037;-58
2022/10/10 11:42:19;;;;;;;25.88;19.83;;;28.70;50.50;;;;;;5063878;28;20026;-58
2022/10/10 11:44:51;;;;;;;28.42;19.52;;;28.60;52.30;;;;;;5061299;28;20075;-58
2022/10/10 11:47:50;;;;;;;33.95;21.15;;;29.00;51.00;;;;;;5075318;28;20109;-58
2022/10/10 11:50:25;;;;;;;30.10;19.92;;;29.50;50.60;;;;;;5052797;28;20048;-58
2022/10/10 11:53:04;;;;;;;37.08;19.80;;;29.60;50.20;;;;;;5069113;28;20372;-58
2022/10/10 11:56:01;;;;;;;29.98;18.38;;;29.40;51.30;;;;;;5060937;28;20473;-58
2022/10/10 11:58:42;;;;;;;22.85;17.35;;;29.50;50.10;;;;;;5065002;28;20477;-58
2022/10/10 12:01:35;;;;;;;32.30;19.45;;;29.40;50.60;;;;;;5073771;28;20044;-58
2022/10/10 12:04:03;;;;;;;22.52;15.93;;;29.50;47.90;;;;;;5075310;28;20032;-58
2022/10/10 12:06:56;;;;;;;30.00;17.92;;;29.10;49.00;;;;;;5075073;28;20465;-58
2022/10/10 12:09:33;;;;;;;32.92;18.55;;;29.20;50.30;;;;;;5075005;28;20103;-58
2022/10/10 12:12:06;;;;;;;33.38;18.10;;;29.40;49.60;;;;;;5073351;28;20031;-58
2022/10/10 12:14:36;;;;;;;19.65;15.18;;;29.40;50.60;;;;;;5074574;28;20375;-58
2022/10/10 12:17:03;;;;;;;18.58;13.52;;;28.90;47.90;;;;;;5070178;28;20059;-58
2022/10/10 12:19:29;;;;;;;24.83;15.20;;;28.40;51.20;;;;;;5064188;28;20036;-58
2022/10/10 12:22:07;;;;;;;19.08;12.52;;;28.30;48.00;;;;;;5085035;28;20024;-58
2022/10/10 12:25:14;;;;;;;20.80;13.68;;;27.40;49.00;;;;;;5084278;28;20029;-58
2022/10/10 12:27:44;;;;;;;21.92;13.68;;;27.50;49.30;;;;;;5063318;28;20467;-58
2022/10/10 12:30:20;;;;;;;19.90;14.05;;;27.90;49.10;;;;;;5064437;28;20471;-58
2022/10/10 12:32:49;;;;;;;21.42;13.57;;;27.40;48.80;;;;;;5061898;28;20025;-59
2022/10/10 12:35:41;;;;;;;18.45;13.98;;;27.60;48.30;;;;;;5058552;28;20429;-58
2022/10/10 12:38:12;;;;;;;23.45;14.73;;;27.60;48.10;;;;;;5066780;28;20045;-59
2022/10/10 12:40:56;;;;;;;27.92;15.82;;;27.50;49.40;;;;;;5070535;28;20090;-58
2022/10/10 12:43:44;;;;;;;15.52;13.40;;;26.90;50.30;;;;;;5054862;28;20029;-58
2022/10/10 12:46:22;;;;;;;20.33;13.45;;;26.10;50.40;;;;;;5065617;28;20045;-59